Time;durP1;ratioP1;P1;durP2;ratioP2;P2;SDS_P1;SDS_P2;PMS_P1;PMS_P2;Temp;Humidity;BMP_temperature;BMP_pressure;BME280_temperature;BME280_humidity;BME280_pressure;Samples;Min_cycle;Max_cycle;Signal;HPM_P1;HPM_P2
2021/12/29 00:02:09;;;;;;;3.83;2.20;;;;;;;;;;5028067;28;20040;-72
2021/12/29 00:04:36;;;;;;;0.73;0.73;;;;;;;;;;5028851;28;20054;-72
2021/12/29 00:07:02;;;;;;;3.15;2.90;;;;;;;;;;5028976;28;20025;-72
2021/12/29 00:09:29;;;;;;;2.72;1.70;;;;;;;;;;5028502;28;20030;-72
2021/12/29 00:11:55;;;;;;;4.22;3.47;;;;;;;;;;5029204;28;20032;-72
2021/12/29 00:14:21;;;;;;;1.63;1.52;;;;;;;;;;5049163;28;20154;-71
2021/12/29 00:16:47;;;;;;;10.75;2.97;;;;;;;;;;5030046;28;20116;-72
2021/12/29 00:19:12;;;;;;;1.50;1.40;;;;;;;;;;5028911;28;20041;-72
2021/12/29 00:21:38;;;;;;;5.95;3.00;;;;;;;;;;5028674;28;20034;-72
2021/12/29 00:24:05;;;;;;;1.48;1.33;;;;;;;;;;5028525;28;20412;-72
2021/12/29 00:26:32;;;;;;;1.15;1.15;;;;;;;;;;5028719;28;20026;-72
2021/12/29 00:28:59;;;;;;;1.13;1.08;;;;;;;;;;5026459;28;20400;-72
2021/12/29 00:31:25;;;;;;;0.70;0.70;;;;;;;;;;5028233;28;20936;-72
2021/12/29 00:33:51;;;;;;;0.65;0.65;;;;;;;;;;5028844;28;20100;-72
2021/12/29 00:36:17;;;;;;;2.08;1.85;;;;;;;;;;5028231;28;20025;-72
2021/12/29 00:38:45;;;;;;;0.95;0.95;;;;;;;;;;5027064;28;20092;-72
2021/12/29 00:41:11;;;;;;;0.30;0.30;;;;;;;;;;5031148;28;20105;-72
2021/12/29 00:43:37;;;;;;;1.80;1.70;;;;;;;;;;5032063;28;20038;-72
2021/12/29 00:46:03;;;;;;;1.13;1.02;;;;;;;;;;5028329;28;20099;-72
2021/12/29 00:48:35;;;;;;;0.77;0.77;;;;;;;;;;5029009;28;20087;-72
2021/12/29 00:51:02;;;;;;;0.85;0.85;;;;;;;;;;5026073;28;20065;-72
2021/12/29 00:53:28;;;;;;;1.08;0.98;;;;;;;;;;5027324;28;20040;-72
2021/12/29 00:55:54;;;;;;;4.43;2.75;;;;;;;;;;5026352;28;20322;-72
2021/12/29 00:58:20;;;;;;;0.65;0.65;;;;;;;;;;5028546;28;20037;-72
2021/12/29 01:00:45;;;;;;;4.80;3.25;;;;;;;;;;5026507;28;20040;-72
2021/12/29 01:03:11;;;;;;;2.08;1.20;;;;;;;;;;5027481;28;20033;-72
2021/12/29 01:05:38;;;;;;;1.10;1.05;;;;;;;;;;5026341;28;20109;-71
2021/12/29 01:08:05;;;;;;;6.78;1.10;;;;;;;;;;5024321;28;20025;-72
2021/12/29 01:10:31;;;;;;;0.77;0.77;;;;;;;;;;5025001;28;20037;-73
2021/12/29 01:12:59;;;;;;;0.35;0.35;;;;;;;;;;5028328;28;20029;-72
2021/12/29 01:15:31;;;;;;;6.07;1.38;;;;;;;;;;5026076;28;20021;-72
2021/12/29 01:17:58;;;;;;;3.75;1.13;;;;;;;;;;5031076;28;20408;-72
2021/12/29 01:20:25;;;;;;;1.50;1.40;;;;;;;;;;5032092;28;20032;-72
2021/12/29 01:22:51;;;;;;;2.88;2.63;;;;;;;;;;5032136;28;20057;-72
2021/12/29 01:25:18;;;;;;;3.20;2.17;;;;;;;;;;5031515;28;20396;-72
2021/12/29 01:27:44;;;;;;;4.10;1.95;;;;;;;;;;5032143;28;20271;-72
2021/12/29 01:30:11;;;;;;;2.17;2.03;;;;;;;;;;5030688;28;20036;-73
2021/12/29 01:32:40;;;;;;;3.28;1.23;;;;;;;;;;5032313;28;20079;-72
2021/12/29 01:35:08;;;;;;;3.00;1.48;;;;;;;;;;5032342;28;20021;-72
2021/12/29 01:37:34;;;;;;;1.05;0.80;;;;;;;;;;5032194;28;20091;-72
2021/12/29 01:40:00;;;;;;;1.70;1.50;;;;;;;;;;5029573;28;20033;-72
2021/12/29 01:42:26;;;;;;;4.32;2.45;;;;;;;;;;5031885;28;20037;-72
2021/12/29 01:44:55;;;;;;;1.85;1.02;;;;;;;;;;5032015;28;20113;-72
2021/12/29 01:47:25;;;;;;;1.92;1.25;;;;;;;;;;5031632;28;20492;-72
2021/12/29 01:49:51;;;;;;;1.40;1.00;;;;;;;;;;5030791;28;20021;-72
2021/12/29 01:52:22;;;;;;;2.08;1.98;;;;;;;;;;5031480;28;20369;-73
2021/12/29 01:54:48;;;;;;;1.38;1.33;;;;;;;;;;5032051;28;20550;-72
2021/12/29 01:57:14;;;;;;;1.85;1.75;;;;;;;;;;5031567;28;20065;-72
2021/12/29 01:59:40;;;;;;;1.83;1.42;;;;;;;;;;5030762;28;20033;-72
2021/12/29 02:02:06;;;;;;;0.60;0.60;;;;;;;;;;5030964;28;20659;-73
2021/12/29 02:04:33;;;;;;;3.20;2.60;;;;;;;;;;5031727;28;20025;-72
2021/12/29 02:06:59;;;;;;;0.98;0.93;;;;;;;;;;5031389;28;20025;-72
2021/12/29 02:09:25;;;;;;;0.75;0.75;;;;;;;;;;5031593;28;20109;-72
2021/12/29 02:11:52;;;;;;;0.40;0.40;;;;;;;;;;5030437;28;20032;-72
2021/12/29 02:14:17;;;;;;;3.20;1.25;;;;;;;;;;5028411;28;20052;-72
2021/12/29 02:16:43;;;;;;;1.67;1.40;;;;;;;;;;5027087;28;20064;-72
2021/12/29 02:19:11;;;;;;;1.23;1.23;;;;;;;;;;5029579;28;20482;-73
2021/12/29 02:21:38;;;;;;;2.28;1.75;;;;;;;;;;5028880;28;20109;-73
2021/12/29 02:26:36;;;;;;;1.45;0.68;;;;;;;;;;5029326;28;20057;-72
2021/12/29 02:29:03;;;;;;;1.52;0.88;;;;;;;;;;5027583;28;20030;-72
2021/12/29 02:31:29;;;;;;;0.40;0.40;;;;;;;;;;5029477;28;20102;-72
2021/12/29 02:33:56;;;;;;;0.95;0.90;;;;;;;;;;5029822;28;20026;-72
2021/12/29 02:36:23;;;;;;;2.65;2.03;;;;;;;;;;5028956;28;20075;-72
2021/12/29 02:38:54;;;;;;;1.95;1.25;;;;;;;;;;5027073;28;20040;-71
2021/12/29 02:41:22;;;;;;;2.67;2.17;;;;;;;;;;5028606;28;20029;-72
2021/12/29 02:43:49;;;;;;;11.82;2.75;;;;;;;;;;5023639;28;20032;-72
2021/12/29 02:46:16;;;;;;;0.88;0.88;;;;;;;;;;5025211;28;20033;-72
2021/12/29 02:48:53;;;;;;;0.45;0.45;;;;;;;;;;5030319;28;20033;-72
2021/12/29 02:51:19;;;;;;;0.98;0.98;;;;;;;;;;5028855;28;20037;-72
2021/12/29 02:53:45;;;;;;;1.83;1.73;;;;;;;;;;5025309;28;20033;-72
2021/12/29 02:56:11;;;;;;;2.13;1.95;;;;;;;;;;5030291;28;20388;-71
2021/12/29 02:58:37;;;;;;;2.58;1.63;;;;;;;;;;5030559;28;20029;-72
2021/12/29 03:01:05;;;;;;;2.42;1.85;;;;;;;;;;5029272;28;20080;-71
2021/12/29 03:03:33;;;;;;;4.63;1.50;;;;;;;;;;5030033;28;20049;-72
2021/12/29 03:05:59;;;;;;;4.05;3.55;;;;;;;;;;5030093;28;20030;-72
2021/12/29 03:08:25;;;;;;;1.88;1.77;;;;;;;;;;5030003;28;20025;-72
2021/12/29 03:10:53;;;;;;;5.72;2.50;;;;;;;;;;5023137;28;20453;-71
2021/12/29 03:13:23;;;;;;;0.98;0.98;;;;;;;;;;5030090;28;20192;-72
2021/12/29 03:15:49;;;;;;;1.27;1.27;;;;;;;;;;5018103;28;20080;-72
2021/12/29 03:18:15;;;;;;;0.52;0.52;;;;;;;;;;5029754;28;20041;-71
2021/12/29 03:20:41;;;;;;;2.67;1.80;;;;;;;;;;5029390;28;20036;-71
2021/12/29 03:23:07;;;;;;;0.65;0.65;;;;;;;;;;5029810;28;20054;-72
2021/12/29 03:25:34;;;;;;;0.43;0.43;;;;;;;;;;5029333;28;20555;-72
2021/12/29 03:28:00;;;;;;;1.85;1.48;;;;;;;;;;5029516;28;20030;-71
2021/12/29 03:30:27;;;;;;;3.92;2.55;;;;;;;;;;5034707;28;20377;-72
2021/12/29 03:33:02;;;;;;;2.20;1.20;;;;;;;;;;5029718;28;20029;-72
2021/12/29 03:35:29;;;;;;;4.25;1.67;;;;;;;;;;5029779;28;20036;-72
2021/12/29 03:37:55;;;;;;;0.30;0.30;;;;;;;;;;5029314;28;20547;-72
2021/12/29 03:40:21;;;;;;;2.25;2.08;;;;;;;;;;5029118;28;20064;-72
2021/12/29 03:42:47;;;;;;;0.30;0.30;;;;;;;;;;5028216;28;20041;-72
2021/12/29 03:45:13;;;;;;;3.10;2.00;;;;;;;;;;5028458;28;20033;-72
2021/12/29 03:47:38;;;;;;;0.50;0.50;;;;;;;;;;5025998;28;20022;-72
2021/12/29 03:50:05;;;;;;;0.80;0.80;;;;;;;;;;5028302;28;20048;-72
2021/12/29 03:52:31;;;;;;;1.73;1.10;;;;;;;;;;5027495;28;20095;-72
2021/12/29 03:54:56;;;;;;;1.00;0.85;;;;;;;;;;5026339;28;20484;-72
2021/12/29 03:57:22;;;;;;;1.02;1.02;;;;;;;;;;5025956;28;20129;-72
2021/12/29 03:59:48;;;;;;;2.13;2.03;;;;;;;;;;5027768;28;20037;-72
2021/12/29 04:02:14;;;;;;;1.13;1.02;;;;;;;;;;5027329;28;20048;-71
2021/12/29 04:04:40;;;;;;;1.20;1.10;;;;;;;;;;5028401;28;20037;-72
2021/12/29 04:07:06;;;;;;;2.25;2.08;;;;;;;;;;5025764;28;20555;-72
2021/12/29 04:09:32;;;;;;;1.02;1.02;;;;;;;;;;5027402;28;20033;-71
2021/12/29 04:11:58;;;;;;;1.48;1.35;;;;;;;;;;5027079;28;20075;-72
2021/12/29 04:14:26;;;;;;;2.50;1.65;;;;;;;;;;5028463;28;20029;-72
2021/12/29 04:16:53;;;;;;;0.55;0.55;;;;;;;;;;5026770;28;20391;-72
2021/12/29 04:19:29;;;;;;;0.63;0.63;;;;;;;;;;5028829;28;20828;-72
2021/12/29 04:21:56;;;;;;;0.20;0.20;;;;;;;;;;5026897;28;20137;-71
2021/12/29 04:24:22;;;;;;;5.00;1.70;;;;;;;;;;5025745;28;20451;-72
2021/12/29 04:26:48;;;;;;;0.30;0.30;;;;;;;;;;5027525;28;20045;-72
2021/12/29 04:29:14;;;;;;;0.63;0.63;;;;;;;;;;5027184;28;20021;-72
2021/12/29 04:31:41;;;;;;;0.40;0.40;;;;;;;;;;5027670;28;20079;-71
2021/12/29 04:34:07;;;;;;;1.20;0.98;;;;;;;;;;5026106;28;20026;-72
2021/12/29 04:36:33;;;;;;;0.88;0.88;;;;;;;;;;5027094;28;20492;-72
2021/12/29 04:39:01;;;;;;;1.85;1.20;;;;;;;;;;5024417;28;20032;-72
2021/12/29 04:41:28;;;;;;;4.07;2.10;;;;;;;;;;5028370;28;20027;-72
2021/12/29 04:43:54;;;;;;;1.73;0.93;;;;;;;;;;5027551;28;20037;-71
2021/12/29 04:46:27;;;;;;;2.78;1.48;;;;;;;;;;5026991;28;20030;-72
2021/12/29 04:48:59;;;;;;;0.52;0.52;;;;;;;;;;5030151;28;20117;-72
2021/12/29 04:51:33;;;;;;;0.73;0.38;;;;;;;;;;5031269;28;20029;-72
2021/12/29 04:53:59;;;;;;;0.25;0.25;;;;;;;;;;5022954;28;20034;-73
2021/12/29 04:56:25;;;;;;;0.60;0.60;;;;;;;;;;5027297;28;20053;-72
2021/12/29 04:58:51;;;;;;;0.73;0.73;;;;;;;;;;5028247;28;20071;-73
2021/12/29 05:01:17;;;;;;;0.65;0.65;;;;;;;;;;5025535;28;20013;-72
2021/12/29 05:03:44;;;;;;;0.20;0.20;;;;;;;;;;5027072;28;20243;-72
2021/12/29 05:08:36;;;;;;;0.40;0.40;;;;;;;;;;5025724;28;20029;-72
2021/12/29 05:11:06;;;;;;;1.67;0.82;;;;;;;;;;5026842;28;20034;-72
2021/12/29 05:13:33;;;;;;;0.47;0.47;;;;;;;;;;5027450;28;20514;-72
2021/12/29 05:15:59;;;;;;;3.30;1.90;;;;;;;;;;5026332;28;20048;-72
2021/12/29 05:18:26;;;;;;;4.50;1.85;;;;;;;;;;5025915;28;20038;-73
2021/12/29 05:20:52;;;;;;;0.65;0.65;;;;;;;;;;5026812;28;20029;-72
2021/12/29 05:23:18;;;;;;;0.30;0.30;;;;;;;;;;5026356;28;20182;-72
2021/12/29 05:25:44;;;;;;;0.50;0.50;;;;;;;;;;5026967;28;20443;-73
2021/12/29 05:28:10;;;;;;;0.40;0.40;;;;;;;;;;5027180;28;20120;-72
2021/12/29 05:30:36;;;;;;;1.23;1.10;;;;;;;;;;5025444;28;20135;-72
2021/12/29 05:33:03;;;;;;;0.95;0.55;;;;;;;;;;5031468;28;20028;-73
2021/12/29 05:35:29;;;;;;;1.00;1.00;;;;;;;;;;5029894;28;20132;-72
2021/12/29 05:37:56;;;;;;;0.45;0.45;;;;;;;;;;5023090;28;20029;-72
2021/12/29 05:40:22;;;;;;;0.52;0.52;;;;;;;;;;5027803;28;20029;-72
2021/12/29 05:42:48;;;;;;;0.65;0.55;;;;;;;;;;5029633;28;20174;-72
2021/12/29 05:45:17;;;;;;;0.85;0.85;;;;;;;;;;5027630;28;20029;-72
2021/12/29 05:47:44;;;;;;;0.30;0.30;;;;;;;;;;5028197;28;20480;-72
2021/12/29 05:50:12;;;;;;;0.55;0.55;;;;;;;;;;5028425;28;20030;-71
2021/12/29 05:52:37;;;;;;;0.98;0.98;;;;;;;;;;5027642;28;20025;-72
2021/12/29 05:55:04;;;;;;;1.27;1.17;;;;;;;;;;5027696;28;20033;-72
2021/12/29 05:57:30;;;;;;;0.28;0.22;;;;;;;;;;5027828;28;20129;-72
2021/12/29 05:59:56;;;;;;;1.85;0.98;;;;;;;;;;5028896;28;20119;-72
2021/12/29 06:02:22;;;;;;;0.20;0.20;;;;;;;;;;5030888;28;20029;-73
2021/12/29 06:04:48;;;;;;;0.28;0.28;;;;;;;;;;5031545;28;20113;-72
2021/12/29 06:07:14;;;;;;;0.60;0.60;;;;;;;;;;5031173;28;20063;-72
2021/12/29 06:09:41;;;;;;;0.85;0.80;;;;;;;;;;5031476;28;20026;-72
2021/12/29 06:12:07;;;;;;;0.25;0.25;;;;;;;;;;5030782;28;20029;-72
2021/12/29 06:14:33;;;;;;;0.90;0.85;;;;;;;;;;5031602;28;20033;-72
2021/12/29 06:16:59;;;;;;;0.70;0.70;;;;;;;;;;5030831;28;20128;-72
2021/12/29 06:19:25;;;;;;;0.38;0.38;;;;;;;;;;5030923;28;20033;-72
2021/12/29 06:21:51;;;;;;;0.25;0.25;;;;;;;;;;5040594;28;20037;-73
2021/12/29 06:24:17;;;;;;;0.85;0.55;;;;;;;;;;5030914;28;20141;-72
2021/12/29 06:26:43;;;;;;;1.08;0.85;;;;;;;;;;5030469;28;20476;-71
2021/12/29 06:29:09;;;;;;;1.17;1.17;;;;;;;;;;5030990;28;20083;-74
2021/12/29 06:31:35;;;;;;;0.10;0.10;;;;;;;;;;5028808;28;20021;-71
2021/12/29 06:34:02;;;;;;;0.40;0.40;;;;;;;;;;5028911;28;20409;-71
2021/12/29 06:36:28;;;;;;;0.30;0.30;;;;;;;;;;5031501;28;20472;-70
2021/12/29 06:38:54;;;;;;;0.28;0.28;;;;;;;;;;5042167;28;20025;-70
2021/12/29 06:41:20;;;;;;;0.40;0.40;;;;;;;;;;5047609;28;20892;-70
2021/12/29 06:43:46;;;;;;;0.95;0.95;;;;;;;;;;5028820;28;20035;-70
2021/12/29 06:46:12;;;;;;;1.65;0.88;;;;;;;;;;5036812;28;20029;-70
2021/12/29 06:48:38;;;;;;;0.10;0.10;;;;;;;;;;5030391;28;20388;-70
2021/12/29 06:51:04;;;;;;;0.10;0.10;;;;;;;;;;5035154;28;20066;-70
2021/12/29 06:53:31;;;;;;;27.15;1.67;;;;;;;;;;5031150;28;20532;-69
2021/12/29 06:55:57;;;;;;;4.32;1.60;;;;;;;;;;5030017;28;20034;-70
2021/12/29 06:58:23;;;;;;;0.70;0.70;;;;;;;;;;5030411;28;20036;-70
2021/12/29 07:00:49;;;;;;;0.30;0.30;;;;;;;;;;5035659;28;20451;-71
2021/12/29 07:03:15;;;;;;;0.82;0.82;;;;;;;;;;5030187;28;20028;-71
2021/12/29 07:05:41;;;;;;;0.50;0.50;;;;;;;;;;5030379;28;20029;-71
2021/12/29 07:08:07;;;;;;;1.10;0.75;;;;;;;;;;5030757;28;20460;-71
2021/12/29 07:10:33;;;;;;;1.65;1.10;;;;;;;;;;5028905;28;20033;-71
2021/12/29 07:12:59;;;;;;;2.05;1.83;;;;;;;;;;5039893;28;20017;-71
2021/12/29 07:15:34;;;;;;;1.02;0.82;;;;;;;;;;5030610;28;20049;-72
2021/12/29 07:18:00;;;;;;;1.00;0.80;;;;;;;;;;5028372;28;20029;-74
2021/12/29 07:20:26;;;;;;;5.18;1.65;;;;;;;;;;5028871;28;20030;-74
2021/12/29 07:22:51;;;;;;;35.00;1.40;;;;;;;;;;5029430;28;20114;-72
2021/12/29 07:25:17;;;;;;;0.63;0.63;;;;;;;;;;5035959;28;20033;-73
2021/12/29 07:27:43;;;;;;;1.63;0.73;;;;;;;;;;5030060;28;20247;-75
2021/12/29 07:30:11;;;;;;;0.82;0.82;;;;;;;;;;5029391;28;20049;-75
2021/12/29 07:32:37;;;;;;;0.43;0.35;;;;;;;;;;5028970;28;20038;-75
2021/12/29 07:35:03;;;;;;;0.40;0.40;;;;;;;;;;5038825;28;20030;-74
2021/12/29 07:37:29;;;;;;;0.15;0.15;;;;;;;;;;5029880;28;20511;-76
2021/12/29 07:39:55;;;;;;;0.20;0.20;;;;;;;;;;5029681;28;20030;-74
2021/12/29 07:42:21;;;;;;;2.15;1.00;;;;;;;;;;5028766;28;20029;-74
2021/12/29 07:44:47;;;;;;;2.53;1.27;;;;;;;;;;5025236;28;20033;-76
2021/12/29 07:47:14;;;;;;;3.45;1.80;;;;;;;;;;5022537;28;20408;-76
2021/12/29 07:49:40;;;;;;;0.32;0.32;;;;;;;;;;5029796;28;20029;-76
2021/12/29 07:52:06;;;;;;;1.38;1.27;;;;;;;;;;5028981;28;20032;-76
2021/12/29 07:54:32;;;;;;;0.30;0.30;;;;;;;;;;5031363;28;20392;-77
2021/12/29 07:56:58;;;;;;;0.90;0.22;;;;;;;;;;5049667;28;20040;-76
2021/12/29 07:59:23;;;;;;;2.28;0.82;;;;;;;;;;5041368;28;20044;-76
2021/12/29 08:01:49;;;;;;;2.25;1.98;;;;;;;;;;5030836;28;20028;-76
2021/12/29 08:04:16;;;;;;;0.30;0.30;;;;;;;;;;5027522;28;20033;-76
2021/12/29 08:06:42;;;;;;;4.05;1.00;;;;;;;;;;5035811;28;20021;-76
2021/12/29 08:09:09;;;;;;;1.60;1.23;;;;;;;;;;5035229;28;20039;-76
2021/12/29 08:11:36;;;;;;;0.50;0.50;;;;;;;;;;5033526;28;20080;-76
2021/12/29 08:14:02;;;;;;;0.35;0.35;;;;;;;;;;5023700;28;20506;-76
2021/12/29 08:16:27;;;;;;;0.20;0.20;;;;;;;;;;5020289;28;20033;-76
2021/12/29 08:18:53;;;;;;;1.65;1.55;;;;;;;;;;5025195;28;20045;-76
2021/12/29 08:21:19;;;;;;;0.38;0.38;;;;;;;;;;5022316;28;20025;-74
2021/12/29 08:23:45;;;;;;;0.60;0.60;;;;;;;;;;5020282;28;20603;-76
2021/12/29 08:26:11;;;;;;;0.63;0.63;;;;;;;;;;5016925;28;20033;-76
2021/12/29 08:28:37;;;;;;;0.73;0.73;;;;;;;;;;5021236;28;20033;-76
2021/12/29 08:31:04;;;;;;;1.55;1.45;;;;;;;;;;5018928;28;20030;-76
2021/12/29 08:33:30;;;;;;;0.68;0.60;;;;;;;;;;5024788;28;20030;-76
2021/12/29 08:35:56;;;;;;;2.65;1.80;;;;;;;;;;5020853;28;20044;-76
2021/12/29 08:38:22;;;;;;;0.50;0.50;;;;;;;;;;5022123;28;20025;-76
2021/12/29 08:40:48;;;;;;;0.43;0.43;;;;;;;;;;5025226;28;20037;-76
2021/12/29 08:43:16;;;;;;;0.68;0.68;;;;;;;;;;5021157;28;20037;-76
2021/12/29 08:45:42;;;;;;;0.70;0.70;;;;;;;;;;5024203;28;20581;-76
2021/12/29 08:48:08;;;;;;;1.95;0.82;;;;;;;;;;5022265;28;20033;-76
2021/12/29 08:50:34;;;;;;;0.63;0.63;;;;;;;;;;5023004;28;20032;-74
2021/12/29 08:53:02;;;;;;;0.98;0.85;;;;;;;;;;5023194;28;20445;-74
2021/12/29 08:55:28;;;;;;;1.55;1.45;;;;;;;;;;5020179;28;20029;-74
2021/12/29 08:57:54;;;;;;;0.10;0.10;;;;;;;;;;5021605;28;20044;-74
2021/12/29 09:00:20;;;;;;;0.10;0.10;;;;;;;;;;5023234;28;20034;-74
2021/12/29 09:02:47;;;;;;;2.10;1.38;;;;;;;;;;5023700;28;20552;-74
2021/12/29 09:05:13;;;;;;;8.45;1.02;;;;;;;;;;5022961;28;20037;-74
2021/12/29 09:07:39;;;;;;;0.65;0.65;;;;;;;;;;5022692;28;20034;-74
2021/12/29 09:10:06;;;;;;;0.80;0.40;;;;;;;;;;5022516;28;20099;-74
2021/12/29 09:12:32;;;;;;;0.88;0.60;;;;;;;;;;5018886;28;20532;-74
2021/12/29 09:14:58;;;;;;;0.57;0.57;;;;;;;;;;5024043;28;20030;-74
2021/12/29 09:17:24;;;;;;;0.57;0.52;;;;;;;;;;5021366;28;20851;-74
2021/12/29 09:19:50;;;;;;;0.20;0.20;;;;;;;;;;5033516;28;20037;-73
2021/12/29 09:22:16;;;;;;;1.77;0.45;;;;;;;;;;5019507;28;20063;-75
2021/12/29 09:24:43;;;;;;;0.20;0.20;;;;;;;;;;5020805;28;20037;-74
2021/12/29 09:27:10;;;;;;;0.30;0.30;;;;;;;;;;5017746;28;20030;-74
2021/12/29 09:29:36;;;;;;;0.20;0.20;;;;;;;;;;5018367;28;20040;-73
2021/12/29 09:32:03;;;;;;;0.20;0.20;;;;;;;;;;5021417;28;20029;-74
2021/12/29 09:34:29;;;;;;;0.47;0.47;;;;;;;;;;5025439;28;20061;-74
2021/12/29 09:36:55;;;;;;;1.50;1.40;;;;;;;;;;5026756;28;20025;-74
2021/12/29 09:39:31;;;;;;;1.63;1.52;;;;;;;;;;5021763;28;20537;-74
2021/12/29 09:41:57;;;;;;;0.28;0.28;;;;;;;;;;5027776;28;20053;-75
2021/12/29 09:44:25;;;;;;;0.20;0.20;;;;;;;;;;5020058;28;20030;-75
2021/12/29 09:46:53;;;;;;;0.60;0.60;;;;;;;;;;5020497;28;20072;-75
2021/12/29 09:49:19;;;;;;;0.52;0.52;;;;;;;;;;5025534;28;20493;-73
2021/12/29 09:51:45;;;;;;;0.40;0.40;;;;;;;;;;5026948;28;20030;-71
2021/12/29 09:54:11;;;;;;;1.10;0.45;;;;;;;;;;5026355;28;20056;-70
2021/12/29 09:56:38;;;;;;;1.50;1.40;;;;;;;;;;5026530;28;20026;-71
2021/12/29 09:59:04;;;;;;;0.95;0.90;;;;;;;;;;5026900;28;20025;-71
2021/12/29 10:01:30;;;;;;;0.85;0.55;;;;;;;;;;5020556;28;20629;-71
2021/12/29 10:03:56;;;;;;;1.02;1.02;;;;;;;;;;5022392;28;20033;-72
2021/12/29 10:06:22;;;;;;;0.93;0.35;;;;;;;;;;5025001;28;20025;-73
2021/12/29 10:08:48;;;;;;;2.10;1.85;;;;;;;;;;5027573;28;20017;-73
2021/12/29 10:11:18;;;;;;;1.17;0.63;;;;;;;;;;5024917;28;20033;-72
2021/12/29 10:13:45;;;;;;;1.40;0.93;;;;;;;;;;5023088;28;20059;-73
2021/12/29 10:16:16;;;;;;;0.47;0.47;;;;;;;;;;5030860;28;20033;-72
2021/12/29 10:18:43;;;;;;;0.93;0.93;;;;;;;;;;5022174;28;20025;-73
2021/12/29 10:21:16;;;;;;;0.82;0.82;;;;;;;;;;5027776;28;20034;-74
2021/12/29 10:23:44;;;;;;;0.13;0.13;;;;;;;;;;5018659;28;20131;-72
2021/12/29 10:26:15;;;;;;;2.00;0.88;;;;;;;;;;5020665;28;20034;-71
2021/12/29 10:28:43;;;;;;;1.90;0.77;;;;;;;;;;5027000;28;20025;-72
2021/12/29 10:31:13;;;;;;;0.70;0.70;;;;;;;;;;5024406;28;20025;-71
2021/12/29 10:33:41;;;;;;;0.80;0.65;;;;;;;;;;5028873;28;20117;-72
2021/12/29 10:36:21;;;;;;;0.50;0.50;;;;;;;;;;5032391;28;20057;-72
2021/12/29 10:38:51;;;;;;;0.20;0.20;;;;;;;;;;5031109;28;20121;-70
2021/12/29 10:41:18;;;;;;;0.73;0.70;;;;;;;;;;5023618;28;20120;-70
2021/12/29 10:43:51;;;;;;;0.10;0.10;;;;;;;;;;5025170;28;20447;-69
2021/12/29 10:46:17;;;;;;;1.83;1.50;;;;;;;;;;5034523;28;20107;-69
2021/12/29 10:48:47;;;;;;;0.88;0.65;;;;;;;;;;5026924;28;20095;-72
2021/12/29 10:51:13;;;;;;;0.93;0.55;;;;;;;;;;5019094;28;20022;-72
2021/12/29 10:53:39;;;;;;;1.48;1.38;;;;;;;;;;5025743;28;20124;-72
2021/12/29 10:56:06;;;;;;;0.47;0.47;;;;;;;;;;5038338;28;20033;-71
2021/12/29 10:58:34;;;;;;;2.75;1.75;;;;;;;;;;5023968;28;20389;-72
2021/12/29 11:01:03;;;;;;;0.28;0.28;;;;;;;;;;5021761;28;20041;-72
2021/12/29 11:03:30;;;;;;;0.55;0.55;;;;;;;;;;5025668;28;20051;-70
2021/12/29 11:06:00;;;;;;;0.80;0.75;;;;;;;;;;5020413;28;20124;-70
2021/12/29 11:08:28;;;;;;;2.22;1.63;;;;;;;;;;5020407;28;20017;-72
2021/12/29 11:10:56;;;;;;;6.20;1.42;;;;;;;;;;5025909;28;20035;-72
2021/12/29 11:13:28;;;;;;;0.38;0.38;;;;;;;;;;5024041;28;20025;-75
2021/12/29 11:15:55;;;;;;;2.10;1.33;;;;;;;;;;5023780;28;20037;-71
2021/12/29 11:18:21;;;;;;;0.98;0.98;;;;;;;;;;5028114;28;20441;-73
2021/12/29 11:20:52;;;;;;;0.35;0.35;;;;;;;;;;5025203;28;20388;-74
2021/12/29 11:23:21;;;;;;;0.28;0.28;;;;;;;;;;5024579;28;20075;-78
2021/12/29 11:25:48;;;;;;;0.63;0.63;;;;;;;;;;5019089;28;20048;-73
2021/12/29 11:28:25;;;;;;;7.72;2.42;;;;;;;;;;5019713;28;20112;-77
2021/12/29 11:30:51;;;;;;;1.05;1.05;;;;;;;;;;5018162;28;20087;-74
2021/12/29 11:33:17;;;;;;;0.85;0.68;;;;;;;;;;5020727;28;20021;-77
2021/12/29 11:35:44;;;;;;;0.75;0.75;;;;;;;;;;5018369;28;20082;-74
2021/12/29 11:38:22;;;;;;;0.75;0.75;;;;;;;;;;5022532;28;20480;-77
2021/12/29 11:40:50;;;;;;;0.65;0.65;;;;;;;;;;5019544;28;20785;-75
2021/12/29 11:43:17;;;;;;;1.55;1.50;;;;;;;;;;5020145;28;20554;-76
2021/12/29 11:45:44;;;;;;;4.28;2.45;;;;;;;;;;5020248;28;20037;-76
2021/12/29 11:48:11;;;;;;;5.72;2.63;;;;;;;;;;5022939;28;20104;-76
2021/12/29 11:50:39;;;;;;;2.67;0.77;;;;;;;;;;5020696;28;20033;-76
2021/12/29 11:53:23;;;;;;;0.73;0.73;;;;;;;;;;5032459;28;20071;-76
2021/12/29 11:55:51;;;;;;;7.03;0.68;;;;;;;;;;5030469;28;20041;-76
2021/12/29 11:58:31;;;;;;;1.08;0.98;;;;;;;;;;5022087;28;20017;-76
2021/12/29 12:01:06;;;;;;;0.93;0.88;;;;;;;;;;5024148;28;20575;-76
2021/12/29 12:03:41;;;;;;;2.33;2.15;;;;;;;;;;5022679;28;20393;-76
2021/12/29 12:06:07;;;;;;;2.47;0.85;;;;;;;;;;5030913;28;20029;-76
2021/12/29 12:08:34;;;;;;;0.60;0.57;;;;;;;;;;5016868;28;20022;-76
2021/12/29 12:11:01;;;;;;;0.73;0.73;;;;;;;;;;5018782;28;20136;-77
2021/12/29 12:13:35;;;;;;;2.63;1.13;;;;;;;;;;5018662;28;20040;-76
2021/12/29 12:16:12;;;;;;;1.42;1.33;;;;;;;;;;5022836;28;20362;-76
2021/12/29 12:18:54;;;;;;;0.77;0.60;;;;;;;;;;5020139;28;20842;-76
2021/12/29 12:21:31;;;;;;;0.65;0.60;;;;;;;;;;5019011;28;20497;-76
2021/12/29 12:24:09;;;;;;;2.75;1.05;;;;;;;;;;5015881;28;20045;-76
2021/12/29 12:26:35;;;;;;;1.02;1.02;;;;;;;;;;5024628;28;20552;-76
2021/12/29 12:29:02;;;;;;;1.45;0.93;;;;;;;;;;5023583;28;20045;-76
2021/12/29 12:31:30;;;;;;;0.98;0.98;;;;;;;;;;5023254;28;20029;-76
2021/12/29 12:34:07;;;;;;;1.88;1.35;;;;;;;;;;5018443;28;20032;-76
2021/12/29 12:36:33;;;;;;;4.85;2.00;;;;;;;;;;5021091;28;20512;-76
2021/12/29 12:39:06;;;;;;;1.63;1.52;;;;;;;;;;5023947;28;20025;-76
2021/12/29 12:41:36;;;;;;;1.02;1.02;;;;;;;;;;5019422;28;20025;-76
2021/12/29 12:44:04;;;;;;;1.42;1.25;;;;;;;;;;5021020;28;20120;-76
2021/12/29 12:46:33;;;;;;;1.73;1.50;;;;;;;;;;5018695;28;20099;-76
2021/12/29 12:48:59;;;;;;;1.15;1.15;;;;;;;;;;5012730;28;20030;-76
2021/12/29 12:51:25;;;;;;;3.13;1.73;;;;;;;;;;5021245;28;20117;-76
2021/12/29 12:53:51;;;;;;;4.03;0.55;;;;;;;;;;5025203;28;20380;-76
2021/12/29 12:56:19;;;;;;;2.50;2.15;;;;;;;;;;5023379;28;20037;-76
2021/12/29 12:58:50;;;;;;;3.15;1.25;;;;;;;;;;5023759;28;20053;-76
2021/12/29 13:01:28;;;;;;;0.57;0.57;;;;;;;;;;5022692;28;20022;-76
2021/12/29 13:04:00;;;;;;;0.50;0.50;;;;;;;;;;5025163;28;20092;-76
2021/12/29 13:06:30;;;;;;;0.60;0.60;;;;;;;;;;5022999;28;20415;-76
2021/12/29 13:09:00;;;;;;;1.20;1.10;;;;;;;;;;5021406;28;20079;-76
2021/12/29 13:11:27;;;;;;;1.55;0.43;;;;;;;;;;5027376;28;20132;-76
2021/12/29 13:13:54;;;;;;;3.75;1.85;;;;;;;;;;5027919;28;20526;-76
2021/12/29 13:16:21;;;;;;;3.17;2.35;;;;;;;;;;5024897;28;20029;-76
2021/12/29 13:18:48;;;;;;;2.08;1.90;;;;;;;;;;5034378;28;20496;-76
2021/12/29 13:21:25;;;;;;;0.93;0.63;;;;;;;;;;5047053;28;20120;-76
2021/12/29 13:23:52;;;;;;;1.90;1.67;;;;;;;;;;5029832;28;20503;-76
2021/12/29 13:26:18;;;;;;;1.95;1.85;;;;;;;;;;5030812;28;20033;-76
2021/12/29 13:28:44;;;;;;;1.42;1.40;;;;;;;;;;5028086;28;20060;-77
2021/12/29 13:31:15;;;;;;;1.73;1.58;;;;;;;;;;5026725;28;20025;-76
2021/12/29 13:33:42;;;;;;;0.28;0.28;;;;;;;;;;5023205;28;20063;-76
2021/12/29 13:36:09;;;;;;;1.70;1.58;;;;;;;;;;5034027;28;20097;-76
2021/12/29 13:38:36;;;;;;;2.40;1.30;;;;;;;;;;5031554;28;20025;-76
2021/12/29 13:41:22;;;;;;;3.42;1.75;;;;;;;;;;5032563;28;20045;-76
2021/12/29 13:43:50;;;;;;;0.57;0.57;;;;;;;;;;5025858;28;20041;-76
2021/12/29 13:46:18;;;;;;;3.28;1.85;;;;;;;;;;5035194;28;20021;-76
2021/12/29 13:48:45;;;;;;;2.40;1.42;;;;;;;;;;5027316;28;20033;-76
2021/12/29 13:51:13;;;;;;;1.38;1.27;;;;;;;;;;5028949;28;20040;-75
2021/12/29 13:53:40;;;;;;;0.52;0.40;;;;;;;;;;5037617;28;20033;-76
2021/12/29 13:56:11;;;;;;;3.38;1.92;;;;;;;;;;5033711;28;20021;-76
2021/12/29 13:58:38;;;;;;;0.63;0.63;;;;;;;;;;5029729;28;20034;-76
2021/12/29 14:01:05;;;;;;;0.75;0.63;;;;;;;;;;5024227;28;20147;-76
2021/12/29 14:03:32;;;;;;;3.38;1.60;;;;;;;;;;5030940;28;20025;-76
2021/12/29 14:06:02;;;;;;;4.57;0.63;;;;;;;;;;5025571;28;20067;-76
2021/12/29 14:08:28;;;;;;;0.55;0.55;;;;;;;;;;5026088;28;20029;-76
2021/12/29 14:10:54;;;;;;;1.83;0.98;;;;;;;;;;5027476;28;20032;-77
2021/12/29 14:13:20;;;;;;;3.28;1.45;;;;;;;;;;5024646;28;20476;-77
2021/12/29 14:15:48;;;;;;;1.70;1.15;;;;;;;;;;5039512;28;20105;-76
2021/12/29 14:18:20;;;;;;;0.70;0.55;;;;;;;;;;5025270;28;20060;-76
2021/12/29 14:20:46;;;;;;;4.32;2.08;;;;;;;;;;5025512;28;20037;-76
2021/12/29 14:23:12;;;;;;;4.95;1.95;;;;;;;;;;5028130;28;20045;-76
2021/12/29 14:25:40;;;;;;;1.80;1.17;;;;;;;;;;5030890;28;20040;-76
2021/12/29 14:28:13;;;;;;;6.07;2.03;;;;;;;;;;5024360;28;20443;-77
2021/12/29 14:30:42;;;;;;;2.17;1.27;;;;;;;;;;5034162;28;20033;-75
2021/12/29 14:33:08;;;;;;;0.88;0.88;;;;;;;;;;5041365;28;20020;-76
2021/12/29 14:35:34;;;;;;;0.63;0.63;;;;;;;;;;5031254;28;20438;-76
2021/12/29 14:38:07;;;;;;;2.00;1.90;;;;;;;;;;5024526;28;20392;-76
2021/12/29 14:40:33;;;;;;;0.32;0.32;;;;;;;;;;5019647;28;20022;-77
2021/12/29 14:43:21;;;;;;;0.95;0.85;;;;;;;;;;5026828;28;20472;-76
2021/12/29 14:45:51;;;;;;;1.20;1.13;;;;;;;;;;5020150;28;20030;-80
2021/12/29 14:48:17;;;;;;;1.77;1.67;;;;;;;;;;5022204;28;20021;-77
2021/12/29 14:50:45;;;;;;;4.78;1.60;;;;;;;;;;5027316;28;20048;-75